Time;durP1;ratioP1;P1;durP2;ratioP2;P2;SDS_P1;SDS_P2;PMS_P1;PMS_P2;Temp;Humidity;BMP_temperature;BMP_pressure;BME280_temperature;BME280_humidity;BME280_pressure;Samples;Min_cycle;Max_cycle;Signal;HPM_P1;HPM_P2
2023/10/01 00:01:53;;;;;;;20.88;14.68;;;;;;;20.83;55.74;101830.69;5983383;23;20483;-81
2023/10/01 00:04:20;;;;;;;18.55;14.85;;;;;;;20.82;55.66;101830.84;5994926;23;20055;-81
2023/10/01 00:06:47;;;;;;;21.27;14.98;;;;;;;20.70;55.43;101800.69;5984605;23;20019;-80
2023/10/01 00:09:19;;;;;;;23.67;14.90;;;;;;;20.91;55.13;101829.81;5969594;23;20238;-80
2023/10/01 00:11:46;;;;;;;23.10;13.80;;;;;;;20.85;55.50;101825.09;5974506;23;20429;-80
2023/10/01 00:14:19;;;;;;;18.92;14.00;;;;;;;20.80;55.79;101827.47;5982577;23;20016;-82
2023/10/01 00:16:58;;;;;;;24.33;15.15;;;;;;;20.67;55.71;101801.88;5969878;23;20104;-81
2023/10/01 00:19:26;;;;;;;25.60;14.40;;;;;;;20.74;56.02;101828.19;5971201;23;20313;-81
2023/10/01 00:21:57;;;;;;;16.42;13.80;;;;;;;20.60;55.93;101811.69;5967086;23;20374;-82
2023/10/01 00:24:24;;;;;;;;;;;;;;;20.61;56.16;101826.88;5957144;23;20022;-81
2023/10/01 00:26:51;;;;;;;22.63;13.77;;;;;;;20.41;55.93;101785.06;5941702;23;19949;-81
2023/10/01 00:29:21;;;;;;;20.52;13.63;;;;;;;20.50;55.50;101800.22;5974268;23;20467;-81
2023/10/01 00:31:49;;;;;;;21.13;13.02;;;;;;;20.25;55.26;101761.69;5978853;23;20035;-82
2023/10/01 00:34:20;;;;;;;20.90;13.88;;;;;;;20.40;55.14;101794.19;5956588;23;20065;-83
2023/10/01 00:36:49;;;;;;;19.98;13.25;;;;;;;20.51;54.98;101818.13;5917126;23;20055;-82
2023/10/01 00:39:20;;;;;;;17.10;12.63;;;;;;;20.31;55.66;101782.56;5965369;23;20092;-81
2023/10/01 00:41:55;;;;;;;22.00;13.02;;;;;;;20.49;55.38;101812.03;5930791;23;20333;-83
2023/10/01 00:44:24;;;;;;;21.48;13.73;;;;;;;20.50;55.47;101821.81;5900030;23;20036;-82
2023/10/01 00:46:53;;;;;;;19.85;12.98;;;;;;;20.51;55.30;101818.13;5946903;23;20055;-81
2023/10/01 00:49:22;;;;;;;19.38;13.52;;;;;;;20.45;55.57;101808.84;5979378;23;20027;-82
2023/10/01 00:51:51;;;;;;;14.93;12.20;;;;;;;19.99;55.82;101737.66;5984146;23;20024;-79
2023/10/01 00:54:23;;;;;;;21.15;13.35;;;;;;;20.42;55.59;101797.56;5938227;23;20330;-80
2023/10/01 00:56:56;;;;;;;23.70;11.68;;;;;;;20.26;55.49;101790.34;5951003;23;20095;-82
2023/10/01 00:59:27;;;;;;;17.63;13.00;;;;;;;20.37;55.80;101810.72;5976215;23;20023;-80
2023/10/01 01:01:54;;;;;;;15.48;12.07;;;;;;;20.18;55.82;101785.81;5972652;23;20378;-81
2023/10/01 01:04:23;;;;;;;22.27;13.27;;;;;;;19.93;56.49;101743.69;5931340;23;20291;-81
2023/10/01 01:06:50;;;;;;;16.25;12.68;;;;;;;20.24;56.53;101795.91;5978719;23;20452;-82
2023/10/01 01:09:19;;;;;;;18.05;12.63;;;;;;;20.25;56.78;101808.38;5974645;23;20118;-81
2023/10/01 01:11:47;;;;;;;25.13;14.35;;;;;;;20.16;56.77;101803.16;5951608;23;20020;-81
2023/10/01 01:14:15;;;;;;;22.30;13.45;;;;;;;20.32;56.59;101826.56;5992500;23;20030;-80
2023/10/01 01:16:45;;;;;;;19.92;12.77;;;;;;;20.21;56.14;101785.44;6023016;23;20336;-81
2023/10/01 01:19:12;;;;;;;21.67;12.55;;;;;;;20.41;55.88;101818.31;5959026;23;20059;-80
2023/10/01 01:21:42;;;;;;;17.27;12.75;;;;;;;20.36;55.97;101814.41;6002200;23;20099;-81
2023/10/01 01:24:09;;;;;;;20.17;12.13;;;;;;;20.36;55.94;101819.81;5972247;23;20024;-81
2023/10/01 01:26:43;;;;;;;17.00;12.73;;;;;;;20.35;55.82;101818.13;6003691;23;20015;-81
2023/10/01 01:29:29;;;;;;;20.80;11.70;;;;;;;20.32;55.13;101826.56;5965041;23;20023;-79
2023/10/01 01:32:32;;;;;;;17.55;12.10;;;;;;;20.08;55.23;101795.09;5955407;23;20478;-80
2023/10/01 01:34:58;;;;;;;14.68;11.02;;;;;;;20.01;54.44;101784.97;5895649;23;20241;-81
2023/10/01 01:37:54;;;;;;;18.27;11.43;;;;;;;20.24;54.69;101835.50;5916302;23;20401;-81
2023/10/01 01:40:31;;;;;;;14.05;10.90;;;;;;;20.27;54.37;101838.72;5965071;23;20270;-82
2023/10/01 01:43:15;;;;;;;15.32;11.13;;;;;;;19.89;54.11;101780.94;5988021;23;20102;-81
2023/10/01 01:45:47;;;;;;;18.83;11.15;;;;;;;20.10;54.26;101837.03;5973017;23;20024;-81
2023/10/01 01:51:17;;;;;;;17.70;11.10;;;;;;;20.02;54.27;101850.50;5907134;23;20022;-81
2023/10/01 01:53:50;;;;;;;19.30;11.75;;;;;;;19.64;54.30;101793.53;5938997;23;20023;-79
2023/10/01 01:56:18;;;;;;;17.38;11.32;;;;;;;19.37;54.39;101749.75;5976749;23;20292;-80
2023/10/01 01:58:47;;;;;;;22.02;12.30;;;;;;;20.35;53.41;101850.50;5972748;23;20024;-81
2023/10/01 02:04:07;;;;;;;17.00;11.95;;;;;;;19.96;54.80;101851.19;5953943;23;20379;-79
2023/10/01 02:06:35;;;;;;;16.65;11.82;;;;;;;20.01;54.35;101848.81;5968662;23;20028;-79
2023/10/01 02:09:12;;;;;;;16.83;11.57;;;;;;;19.91;55.01;101853.53;5943203;23;20053;-84
2023/10/01 02:11:43;;;;;;;18.40;11.88;;;;;;;19.67;55.70;101847.09;5943957;23;20026;-81
2023/10/01 02:14:29;;;;;;;16.75;11.88;;;;;;;19.70;55.79;101859.41;5934574;23;20654;-82
2023/10/01 02:17:15;;;;;;;19.73;11.07;;;;;;;19.58;55.89;101848.91;5921029;23;20056;-82
2023/10/01 02:19:55;;;;;;;17.40;11.65;;;;;;;19.55;55.55;101849.25;5926348;23;20263;-82
2023/10/01 02:22:33;;;;;;;20.25;11.55;;;;;;;19.47;56.52;101845.69;5933723;23;20083;-81
2023/10/01 02:25:11;;;;;;;16.83;11.88;;;;;;;19.56;56.22;101866.25;5925808;23;20455;-81
2023/10/01 02:28:06;;;;;;;13.88;11.18;;;;;;;19.19;56.62;101810.94;5903139;23;20139;-81
2023/10/01 02:30:44;;;;;;;17.50;11.93;;;;;;;19.13;56.98;101817.84;5906539;23;20387;-82
2023/10/01 02:33:15;;;;;;;17.45;11.30;;;;;;;19.40;57.06;101867.91;5933006;23;20024;-81
2023/10/01 02:35:48;;;;;;;15.70;11.65;;;;;;;19.31;57.16;101852.72;5971119;23;20182;-81
2023/10/01 02:41:15;;;;;;;15.27;10.57;;;;;;;19.29;57.65;101854.72;5911196;23;20110;-80
2023/10/01 02:43:50;;;;;;;19.50;11.50;;;;;;;19.19;58.11;101848.63;5970504;23;20647;-80
2023/10/01 02:46:29;;;;;;;16.05;11.07;;;;;;;19.31;57.83;101859.94;5937961;23;20028;-80
2023/10/01 02:49:05;;;;;;;15.80;10.95;;;;;;;19.28;57.05;101842.28;5923326;23;20024;-81
2023/10/01 02:51:38;;;;;;;18.27;10.95;;;;;;;19.15;57.27;101812.28;5900743;23;20262;-80
2023/10/01 02:54:09;;;;;;;14.90;10.95;;;;;;;19.27;57.48;101840.56;5892842;23;20408;-81
2023/10/01 02:57:12;;;;;;;15.93;11.40;;;;;;;19.16;58.18;101824.75;5901096;23;20089;-81
2023/10/01 03:00:20;;;;;;;20.38;11.05;;;;;;;19.32;57.63;101853.53;5947163;23;20268;-80
2023/10/01 03:02:38;;;;;;;15.57;11.00;;;;;;;19.36;58.22;101866.53;5936313;23;20083;-80
2023/10/01 03:05:19;;;;;;;16.73;10.68;;;;;;;19.24;57.79;101845.47;5928079;23;20020;-80
2023/10/01 03:08:04;;;;;;;20.58;11.45;;;;;;;19.13;57.57;101825.91;5894184;23;20028;-80
2023/10/01 03:10:46;;;;;;;13.88;11.02;;;;;;;19.32;57.96;101875.09;5881170;23;20461;-80
2023/10/01 03:13:30;;;;;;;16.92;11.40;;;;;;;19.18;58.20;101841.56;5879657;23;20386;-81
2023/10/01 03:19:04;;;;;;;13.35;9.88;;;;;;;19.20;58.24;101866.50;5908087;23;20020;-81
2023/10/01 03:24:41;;;;;;;17.33;10.52;;;;;;;19.15;57.37;101853.50;5913228;23;20034;-80
2023/10/01 03:27:33;;;;;;;15.88;11.32;;;;;;;19.31;57.81;101885.03;5943212;23;20364;-79
2023/10/01 03:30:23;;;;;;;13.68;10.70;;;;;;;19.17;58.13;101850.63;5915424;23;20022;-79
2023/10/01 03:32:55;;;;;;;14.10;10.07;;;;;;;19.33;57.23;101872.25;5924426;23;20866;-80
2023/10/01 03:35:34;;;;;;;19.48;10.90;;;;;;;19.07;57.70;101834.63;5939775;23;20332;-80
2023/10/01 03:38:14;;;;;;;19.75;10.68;;;;;;;19.17;58.29;101858.72;5955130;23;20024;-80
2023/10/01 03:41:06;;;;;;;13.98;9.70;;;;;;;19.19;56.90;101849.47;5881095;23;20098;-79
2023/10/01 03:43:34;;;;;;;13.30;10.48;;;;;;;19.38;57.49;101887.91;5911903;23;20020;-77
2023/10/01 03:46:31;;;;;;;16.00;10.07;;;;;;;18.42;58.01;101746.38;5948045;23;20323;-79
2023/10/01 03:49:33;;;;;;;13.50;9.20;;;;;;;19.26;56.92;101865.81;5907335;23;20106;-80
2023/10/01 03:52:02;;;;;;;15.20;9.90;;;;;;;18.89;56.82;101809.69;5906608;23;20118;-77
2023/10/01 03:57:23;;;;;;;15.05;9.43;;;;;;;19.25;57.27;101882.13;5967108;23;20083;-78
2023/10/01 03:59:57;;;;;;;17.23;9.43;;;;;;;19.30;57.41;101893.28;5975830;23;20051;-80
2023/10/01 04:02:28;;;;;;;15.00;9.40;;;;;;;19.25;58.09;101880.31;5952731;23;20276;-79
2023/10/01 04:04:58;;;;;;;16.27;9.88;;;;;;;19.11;58.23;101857.53;5975189;23;20028;-79
2023/10/01 04:07:26;;;;;;;14.00;9.40;;;;;;;19.24;57.07;101864.31;5976149;23;20015;-80
2023/10/01 04:09:54;;;;;;;12.70;9.40;;;;;;;19.35;56.97;101880.16;5961348;23;20103;-79
2023/10/01 04:12:29;;;;;;;13.88;9.25;;;;;;;19.03;56.82;101818.97;5955491;23;20319;-76
2023/10/01 04:15:04;;;;;;;14.05;8.60;;;;;;;19.03;57.14;101821.66;5917972;23;20427;-76
2023/10/01 04:17:35;;;;;;;18.35;9.98;;;;;;;19.33;57.22;101877.63;5969608;23;20087;-79
2023/10/01 04:20:13;;;;;;;13.30;8.55;;;;;;;19.16;57.81;101865.94;5985992;23;20080;-78
2023/10/01 04:22:40;;;;;;;19.70;9.05;;;;;;;19.19;57.68;101883.63;5965072;23;20019;-77
2023/10/01 04:25:12;;;;;;;12.98;9.02;;;;;;;18.72;58.05;101824.88;5968220;23;20298;-78
2023/10/01 04:27:42;;;;;;;14.65;9.80;;;;;;;18.67;58.13;101819.13;5994988;23;20019;-78
2023/10/01 04:30:21;;;;;;;11.68;9.40;;;;;;;19.08;58.30;101886.59;5881296;23;20831;-80
2023/10/01 04:33:27;;;;;;;16.63;10.20;;;;;;;19.00;58.66;101876.63;5927980;23;20031;-80
2023/10/01 04:36:01;;;;;;;13.27;9.25;;;;;;;18.99;58.61;101886.56;5947506;23;20023;-79
2023/10/01 04:38:35;;;;;;;16.10;10.18;;;;;;;18.96;58.73;101892.28;5943816;23;20106;-80
2023/10/01 04:41:07;;;;;;;15.98;8.95;;;;;;;18.94;58.45;101880.81;5991314;23;20028;-76
2023/10/01 04:43:41;;;;;;;14.30;9.82;;;;;;;18.98;58.03;101879.50;5967248;23;20028;-77
2023/10/01 04:46:12;;;;;;;12.23;8.00;;;;;;;19.03;57.50;101864.72;5934134;23;20446;-79
2023/10/01 04:48:39;;;;;;;16.85;9.95;;;;;;;19.16;57.26;101881.28;5975786;23;20511;-78
2023/10/01 04:51:07;;;;;;;10.05;8.32;;;;;;;19.18;56.94;101890.88;5977658;23;20073;-80
2023/10/01 04:53:34;;;;;;;11.70;8.25;;;;;;;19.39;55.79;101885.06;5997646;23;20437;-80
2023/10/01 04:56:05;;;;;;;12.73;8.18;;;;;;;18.96;56.14;101832.25;5969969;23;20137;-78
2023/10/01 04:58:37;;;;;;;9.35;7.30;;;;;;;19.22;56.28;101904.84;5956672;23;20024;-80
2023/10/01 05:01:10;;;;;;;9.15;7.65;;;;;;;19.02;57.18;101885.41;5950167;23;20031;-80
2023/10/01 05:03:39;;;;;;;9.32;8.00;;;;;;;18.72;57.08;101852.59;5933249;23;20372;-80
2023/10/01 05:06:18;;;;;;;16.65;9.05;;;;;;;18.90;57.53;101895.59;5948728;23;20047;-80
2023/10/01 05:08:56;;;;;;;14.52;8.32;;;;;;;18.77;57.80;101876.38;5925737;24;20024;-79
2023/10/01 05:11:31;;;;;;;13.35;8.45;;;;;;;18.01;57.87;101762.25;5925586;24;20126;-80
2023/10/01 05:13:59;;;;;;;10.77;7.50;;;;;;;18.81;57.67;101903.78;5970568;23;20024;-80
2023/10/01 05:16:26;;;;;;;10.10;7.45;;;;;;;18.83;57.79;101899.09;5940850;24;20373;-77
2023/10/01 05:19:13;;;;;;;13.98;7.70;;;;;;;18.67;57.96;101883.69;5902503;24;20111;-79
2023/10/01 05:21:47;;;;;;;14.25;7.85;;;;;;;18.69;58.01;101892.41;5946863;24;20020;-79
2023/10/01 05:24:38;;;;;;;9.57;7.55;;;;;;;18.62;57.98;101883.28;5926432;24;20024;-80
2023/10/01 05:27:18;;;;;;;13.90;8.13;;;;;;;18.34;57.61;101833.19;5918471;24;20024;-80
2023/10/01 05:29:45;;;;;;;11.40;8.15;;;;;;;18.87;57.65;101920.13;5954939;23;20052;-80
2023/10/01 05:32:13;;;;;;;14.05;9.25;;;;;;;18.92;57.43;101917.81;5924063;24;20537;-79
2023/10/01 05:34:45;;;;;;;13.57;8.63;;;;;;;18.79;56.73;101885.13;5928049;24;20028;-81
2023/10/01 05:37:24;;;;;;;14.45;7.82;;;;;;;18.87;56.50;101898.63;5944595;24;20380;-80
2023/10/01 05:39:55;;;;;;;14.38;9.02;;;;;;;18.99;57.05;101928.78;5911980;24;20028;-78
2023/10/01 05:42:26;;;;;;;10.60;8.23;;;;;;;18.86;57.72;101921.16;5937052;24;20027;-80
2023/10/01 05:44:55;;;;;;;17.92;7.70;;;;;;;19.00;57.60;101946.59;5970455;23;20410;-79
2023/10/01 05:47:45;;;;;;;9.43;7.50;;;;;;;19.00;56.85;101923.25;5980478;23;20043;-81
2023/10/01 05:50:14;;;;;;;11.70;8.20;;;;;;;18.88;56.53;101911.06;5949845;24;20020;-78
2023/10/01 05:52:41;;;;;;;15.02;8.15;;;;;;;18.99;57.54;101926.94;5953285;24;20782;-80
2023/10/01 05:55:19;;;;;;;11.05;8.52;;;;;;;18.79;56.86;101901.25;5971560;23;20163;-80
2023/10/01 05:57:50;;;;;;;11.07;8.15;;;;;;;19.06;56.51;101920.94;5986851;23;20020;-80
2023/10/01 06:00:27;;;;;;;18.38;9.00;;;;;;;19.16;56.37;101946.72;5912212;24;20032;-81
2023/10/01 06:03:01;;;;;;;14.57;8.73;;;;;;;19.31;56.25;101965.78;5947820;23;20128;-78
2023/10/01 06:05:42;;;;;;;15.45;7.82;;;;;;;19.36;55.86;101970.69;5978835;23;20024;-80
2023/10/01 06:08:15;;;;;;;14.90;8.90;;;;;;;18.81;55.54;101877.72;5914538;24;20028;-79
2023/10/01 06:11:05;;;;;;;11.48;7.97;;;;;;;19.48;56.92;101987.41;5926385;24;20020;-80
2023/10/01 06:13:38;;;;;;;17.10;8.50;;;;;;;19.45;57.89;101991.28;5921618;24;20028;-80
2023/10/01 06:16:16;;;;;;;11.55;7.88;;;;;;;19.43;57.50;101993.28;5943687;24;20236;-80
2023/10/01 06:18:50;;;;;;;12.25;8.18;;;;;;;19.40;58.25;102002.53;5940968;24;20053;-78
2023/10/01 06:21:25;;;;;;;11.07;8.65;;;;;;;19.44;57.90;102000.34;5918830;24;20095;-79
2023/10/01 06:24:03;;;;;;;14.20;7.82;;;;;;;19.28;57.75;101979.59;5937459;24;20030;-79
2023/10/01 06:26:42;;;;;;;13.90;8.25;;;;;;;19.51;58.58;102003.25;5915754;24;20039;-78
2023/10/01 06:29:11;;;;;;;16.70;8.35;;;;;;;19.03;58.05;101918.53;5926346;24;20024;-79
2023/10/01 06:34:21;;;;;;;11.00;7.95;;;;;;;19.46;58.56;101992.13;5942808;24;20100;-80
2023/10/01 06:36:51;;;;;;;9.80;8.00;;;;;;;19.42;59.11;101980.84;5922659;24;20272;-78
2023/10/01 06:39:23;;;;;;;12.88;8.55;;;;;;;19.62;59.19;102011.91;5924406;24;20332;-80
2023/10/01 06:44:44;;;;;;;17.15;8.65;;;;;;;19.69;58.67;102008.59;5919513;24;20288;-80
2023/10/01 06:47:16;;;;;;;13.30;7.95;;;;;;;19.73;57.90;102005.38;5960079;23;20020;-80
2023/10/01 06:52:41;;;;;;;12.75;8.27;;;;;;;19.90;57.67;102010.84;5944737;24;20016;-82
2023/10/01 06:55:25;;;;;;;11.98;8.30;;;;;;;19.97;56.80;102009.19;5929680;24;20388;-80
2023/10/01 06:58:00;;;;;;;14.87;8.83;;;;;;;20.00;56.96;101992.66;5947833;23;20020;-79
2023/10/01 07:00:34;;;;;;;17.83;8.07;;;;;;;19.91;56.62;101977.50;5950548;24;20273;-80
2023/10/01 07:03:18;;;;;;;12.23;8.40;;;;;;;20.18;56.39;102017.66;5922676;24;20020;-80
2023/10/01 07:05:55;;;;;;;10.00;7.40;;;;;;;20.31;54.68;102019.03;5926264;24;20052;-82
2023/10/01 07:08:37;;;;;;;16.00;7.38;;;;;;;20.40;53.66;102020.72;5946282;24;20446;-78
2023/10/01 07:11:11;;;;;;;;;;;;;;;20.42;54.27;102021.41;5953926;23;20258;-79
2023/10/01 07:13:39;;;;;;;12.50;7.00;;;;;;;20.47;54.44;102021.75;5930304;24;19919;-81
2023/10/01 07:16:07;;;;;;;10.93;7.63;;;;;;;20.59;54.42;102023.16;5967373;23;20024;-79
2023/10/01 07:18:37;;;;;;;10.68;7.15;;;;;;;20.53;53.22;102004.88;5956906;23;20043;-82
2023/10/01 07:21:09;;;;;;;12.77;7.32;;;;;;;20.60;52.82;102000.53;5975423;23;20024;-80
2023/10/01 07:23:36;;;;;;;10.88;6.90;;;;;;;20.85;52.11;102025.69;5889024;24;20020;-80
2023/10/01 07:26:12;;;;;;;9.52;6.90;;;;;;;20.94;52.27;102029.19;5955584;23;20056;-80
2023/10/01 07:28:41;;;;;;;12.38;6.95;;;;;;;20.38;52.90;101936.44;5980551;23;20021;-81
2023/10/01 07:31:15;;;;;;;13.88;8.10;;;;;;;21.06;52.10;102038.63;5950969;23;20031;-79
2023/10/01 07:33:42;;;;;;;14.55;7.78;;;;;;;21.23;51.80;102047.56;5962447;24;20200;-80
2023/10/01 07:36:11;;;;;;;9.25;7.80;;;;;;;21.24;51.41;102045.69;5954168;23;20059;-81
2023/10/01 07:38:48;;;;;;;12.48;8.65;;;;;;;21.06;52.07;102010.78;5958353;24;20024;-80
2023/10/01 07:41:27;;;;;;;12.32;9.05;;;;;;;21.39;52.38;102054.81;5971506;23;20020;-82
2023/10/01 07:43:55;;;;;;;12.57;9.55;;;;;;;21.40;52.32;102045.69;5933437;24;20033;-81
2023/10/01 07:46:28;;;;;;;16.92;11.75;;;;;;;21.49;52.54;102058.16;5930260;24;20310;-81
2023/10/01 07:49:01;;;;;;;14.50;10.38;;;;;;;21.48;51.79;102037.59;5947205;23;20040;-81
2023/10/01 07:51:38;;;;;;;14.25;11.70;;;;;;;21.58;51.38;102050.03;5936036;24;20104;-82
2023/10/01 07:54:12;;;;;;;11.70;10.48;;;;;;;21.19;50.91;101958.94;5951731;23;20028;-80
2023/10/01 07:56:48;;;;;;;16.25;9.90;;;;;;;21.45;51.14;102016.28;5928688;24;20027;-81
2023/10/01 07:59:17;;;;;;;11.75;10.05;;;;;;;21.90;50.91;102076.94;5941155;24;20063;-81
2023/10/01 08:01:45;;;;;;;14.98;9.57;;;;;;;21.94;50.30;102070.19;5933479;24;20146;-81
2023/10/01 08:07:15;;;;;;;14.13;8.88;;;;;;;21.99;50.46;102080.44;5948226;24;20020;-77
2023/10/01 08:09:57;;;;;;;12.52;9.50;;;;;;;21.60;51.16;102016.41;5949002;24;20053;-78
2023/10/01 08:12:29;;;;;;;12.63;10.48;;;;;;;21.96;51.54;102088.91;5943309;24;20097;-78
2023/10/01 08:15:15;;;;;;;16.58;12.90;;;;;;;21.97;51.74;102074.38;5965068;23;20054;-81
2023/10/01 08:17:44;;;;;;;20.55;13.88;;;;;;;22.15;50.95;102083.06;5923916;24;20709;-79
2023/10/01 08:20:21;;;;;;;15.32;12.40;;;;;;;22.01;50.87;102047.81;5930687;24;20028;-78
2023/10/01 08:25:42;;;;;;;15.75;12.45;;;;;;;22.28;50.65;102081.69;5951074;24;20024;-80
2023/10/01 08:34:22;;;;;;;14.93;11.00;;;;;;;21.84;50.70;102020.03;5905985;24;20056;-81
2023/10/01 08:36:57;;;;;;;17.27;10.85;;;;;;;22.17;51.00;102074.78;5927171;24;20058;-81
2023/10/01 08:39:48;;;;;;;12.45;10.45;;;;;;;22.02;50.62;102044.97;5911264;23;20016;-80
2023/10/01 08:42:28;;;;;;;15.07;10.85;;;;;;;22.47;50.25;102091.22;5908200;24;20028;-80
2023/10/01 08:45:05;;;;;;;12.05;10.38;;;;;;;22.40;49.86;102073.00;5952561;23;20051;-81
2023/10/01 08:47:44;;;;;;;11.85;9.95;;;;;;;22.45;50.34;102079.72;5915987;24;20087;-80
2023/10/01 08:50:27;;;;;;;13.05;10.70;;;;;;;22.18;49.27;101996.16;5921665;24;20040;-81
2023/10/01 08:53:18;;;;;;;13.35;10.38;;;;;;;22.73;48.94;102080.03;5891595;24;20020;-80
2023/10/01 09:00:53;;;;;;;16.45;10.50;;;;;;;22.87;49.33;102070.28;5916988;24;20448;-79
2023/10/01 09:03:34;;;;;;;16.85;11.13;;;;;;;23.01;49.65;102080.34;5925439;23;20159;-78
2023/10/01 09:06:24;;;;;;;15.25;10.57;;;;;;;23.28;49.46;102094.31;5964754;23;20027;-78
2023/10/01 09:08:55;;;;;;;16.15;11.38;;;;;;;23.43;48.47;102073.50;5960162;23;20255;-81
2023/10/01 09:11:49;;;;;;;18.58;11.40;;;;;;;23.60;48.14;102071.47;5953950;23;20522;-81
2023/10/01 09:14:20;;;;;;;21.45;13.73;;;;;;;23.79;48.05;102086.34;5962643;23;20020;-79
2023/10/01 09:17:00;;;;;;;14.85;12.27;;;;;;;23.78;48.10;102068.38;5981536;23;20034;-81
2023/10/01 09:19:50;;;;;;;16.33;12.40;;;;;;;23.97;48.46;102086.78;5974567;23;20080;-79
2023/10/01 09:25:19;;;;;;;16.42;13.65;;;;;;;24.32;47.19;102081.56;5974437;23;20026;-79
2023/10/01 09:28:19;;;;;;;22.67;13.88;;;;;;;24.49;46.89;102085.75;5947814;23;20028;-80
2023/10/01 09:33:48;;;;;;;19.20;11.80;;;;;;;24.67;46.31;102089.91;5956093;23;20024;-79
2023/10/01 09:36:47;;;;;;;14.65;11.65;;;;;;;24.79;46.32;102082.09;5991288;23;20585;-78
2023/10/01 09:39:22;;;;;;;17.65;11.38;;;;;;;24.94;46.05;102082.84;5916783;23;20103;-78
2023/10/01 09:41:55;;;;;;;13.23;11.73;;;;;;;25.16;45.92;102084.47;5991253;23;20563;-80
2023/10/01 09:44:24;;;;;;;17.77;12.70;;;;;;;25.23;45.43;102068.25;5909234;23;20418;-79
2023/10/01 09:47:07;;;;;;;17.30;11.73;;;;;;;25.38;43.97;102074.41;5958508;23;20211;-82
2023/10/01 09:49:51;;;;;;;13.45;11.75;;;;;;;25.68;43.41;102082.34;5967897;23;20284;-82
2023/10/01 09:52:52;;;;;;;21.13;12.93;;;;;;;25.68;42.90;102060.59;5944642;23;20460;-81
2023/10/01 09:55:34;;;;;;;20.70;11.57;;;;;;;25.85;42.10;102065.66;5906852;23;20031;-82
2023/10/01 09:58:10;;;;;;;13.02;10.98;;;;;;;25.57;41.60;102004.88;5924343;23;20024;-83
2023/10/01 10:00:40;;;;;;;25.70;11.13;;;;;;;26.18;40.76;102065.84;5959501;23;20054;-82
2023/10/01 10:03:12;;;;;;;12.90;10.57;;;;;;;26.13;41.16;102047.41;5975635;23;20350;-83
2023/10/01 10:05:40;;;;;;;14.35;11.88;;;;;;;26.15;41.44;102033.59;5964605;23;20034;-81
2023/10/01 10:08:20;;;;;;;12.65;10.27;;;;;;;26.50;40.79;102077.84;5935303;23;20099;-83
2023/10/01 10:11:06;;;;;;;16.75;10.18;;;;;;;26.77;40.11;102077.91;5880314;23;20423;-82
2023/10/01 10:13:38;;;;;;;25.42;10.90;;;;;;;26.94;40.00;102075.63;5935098;23;20023;-82
2023/10/01 10:16:40;;;;;;;13.05;9.50;;;;;;;26.87;39.62;102045.66;5971119;23;20274;-81
2023/10/01 10:19:21;;;;;;;11.23;9.85;;;;;;;27.09;39.15;102065.34;5962685;23;20112;-81
2023/10/01 10:24:54;;;;;;;12.40;10.18;;;;;;;27.59;39.37;102081.22;5906911;23;20382;-81
2023/10/01 10:27:24;;;;;;;19.10;10.85;;;;;;;27.77;39.71;102081.38;5922604;23;20024;-81
2023/10/01 10:30:14;;;;;;;15.68;11.38;;;;;;;27.60;39.25;102020.16;5917264;23;20547;-81
2023/10/01 10:33:14;;;;;;;16.50;11.27;;;;;;;28.09;38.97;102076.03;5913737;23;20034;-81
2023/10/01 10:35:49;;;;;;;13.07;10.18;;;;;;;28.25;38.85;102072.78;5949895;23;20030;-82
2023/10/01 10:38:52;;;;;;;16.02;11.27;;;;;;;28.44;38.40;102072.88;5924733;23;20028;-81
2023/10/01 10:41:25;;;;;;;15.63;12.20;;;;;;;28.56;38.33;102079.34;5918731;23;20030;-81
2023/10/01 10:44:10;;;;;;;17.77;11.40;;;;;;;28.66;37.74;102074.22;5935135;23;20020;-81
2023/10/01 10:47:11;;;;;;;12.05;10.77;;;;;;;28.69;36.41;102045.63;5952000;23;20096;-81
2023/10/01 10:49:56;;;;;;;15.15;10.40;;;;;;;28.93;35.71;102074.00;5947560;23;20103;-81
2023/10/01 10:52:37;;;;;;;15.15;10.05;;;;;;;28.89;36.20;102068.16;5980666;23;20046;-81
2023/10/01 10:55:20;;;;;;;11.50;9.18;;;;;;;28.86;35.73;102051.38;5979848;23;20409;-80
2023/10/01 10:57:51;;;;;;;14.15;9.73;;;;;;;28.91;36.30;102029.66;5943236;23;20099;-82
2023/10/01 11:00:27;;;;;;;14.98;9.63;;;;;;;28.69;36.53;101980.91;5944898;23;20042;-83
2023/10/01 11:02:57;;;;;;;17.77;9.88;;;;;;;29.08;35.82;102021.75;5953377;23;20487;-82
2023/10/01 11:05:49;;;;;;;14.90;11.05;;;;;;;29.23;35.60;102032.34;5913245;23;20023;-82
2023/10/01 11:08:28;;;;;;;14.30;9.13;;;;;;;29.49;35.27;102056.69;5950441;23;20039;-80
2023/10/01 11:10:55;;;;;;;20.65;9.95;;;;;;;29.35;34.67;101994.97;5922765;23;20027;-83
2023/10/01 11:13:45;;;;;;;11.10;8.45;;;;;;;29.76;33.97;102040.81;5930515;23;20376;-83
2023/10/01 11:16:17;;;;;;;13.90;9.57;;;;;;;29.81;34.21;102042.84;5970358;23;20079;-83
2023/10/01 11:18:44;;;;;;;11.73;9.93;;;;;;;29.67;33.98;102008.50;5969639;23;20086;-80
2023/10/01 11:21:31;;;;;;;10.93;9.25;;;;;;;29.74;34.10;102004.63;5993931;23;20028;-82
2023/10/01 11:24:00;;;;;;;12.10;9.82;;;;;;;29.91;34.15;102015.78;5995813;23;20335;-82
2023/10/01 11:26:27;;;;;;;13.13;10.00;;;;;;;29.50;34.12;101956.28;5943662;23;20057;-81
2023/10/01 11:28:57;;;;;;;14.57;10.23;;;;;;;29.95;33.82;102027.06;5986783;23;20026;-83
2023/10/01 11:31:31;;;;;;;10.30;9.23;;;;;;;29.63;33.95;102001.78;5983672;23;20024;-83
2023/10/01 11:34:21;;;;;;;15.57;10.50;;;;;;;29.50;34.19;101989.94;5971054;23;20555;-82
2023/10/01 11:36:56;;;;;;;14.05;9.90;;;;;;;29.48;34.19;102027.63;5951230;23;20905;-83
2023/10/01 11:39:38;;;;;;;12.15;9.50;;;;;;;28.86;34.34;101958.44;5947085;23;20560;-82
2023/10/01 11:42:19;;;;;;;12.40;9.20;;;;;;;29.08;34.33;102021.75;5959452;23;20076;-81
2023/10/01 11:44:52;;;;;;;14.70;10.10;;;;;;;28.84;34.91;101988.75;5927731;23;20100;-82
2023/10/01 11:47:33;;;;;;;13.45;10.27;;;;;;;28.59;35.29;101964.16;5939199;23;20708;-83
2023/10/01 11:50:08;;;;;;;14.75;10.45;;;;;;;28.69;35.60;101986.38;5986154;23;20211;-81
2023/10/01 11:52:43;;;;;;;11.65;9.93;;;;;;;28.70;35.33;101982.56;5945502;23;20202;-82
2023/10/01 11:55:21;;;;;;;10.80;9.45;;;;;;;28.72;34.77;101999.56;5934102;23;20440;-82
2023/10/01 11:57:53;;;;;;;14.73;9.02;;;;;;;28.61;35.49;101996.72;5928223;23;20058;-82
2023/10/01 12:03:18;;;;;;;11.55;8.98;;;;;;;28.47;35.42;101987.78;5934828;23;20034;-81
2023/10/01 12:05:56;;;;;;;14.38;8.55;;;;;;;28.60;35.62;101984.13;5949000;23;20024;-82
2023/10/01 12:08:35;;;;;;;15.60;9.07;;;;;;;28.31;35.19;101970.88;5933428;23;20411;-81
2023/10/01 12:12:03;;;;;;;12.65;9.60;;;;;;;27.81;35.38;101896.25;5930582;23;20016;-81
2023/10/01 12:14:06;;;;;;;14.52;9.55;;;;;;;27.86;36.43;101926.47;5955513;23;20359;-81
2023/10/01 12:16:33;;;;;;;13.75;9.50;;;;;;;28.10;37.11;101969.34;5948463;23;20055;-81
2023/10/01 12:21:48;;;;;;;16.45;9.48;;;;;;;27.89;36.72;101931.47;5961782;23;20119;-80
2023/10/01 12:24:15;;;;;;;12.35;9.57;;;;;;;27.83;36.08;101932.38;5983807;23;20448;-81
2023/10/01 12:26:48;;;;;;;10.75;9.45;;;;;;;27.83;36.65;101930.47;5923880;23;20375;-81
2023/10/01 12:29:18;;;;;;;14.95;10.18;;;;;;;27.75;36.83;101921.69;5959400;23;20046;-81
2023/10/01 12:31:59;;;;;;;17.48;10.90;;;;;;;27.89;36.85;101956.03;5954105;23;20055;-80
2023/10/01 12:34:35;;;;;;;17.40;10.52;;;;;;;28.06;36.49;101945.44;5971102;23;20080;-80
2023/10/01 12:37:35;;;;;;;11.10;9.27;;;;;;;27.98;36.26;101929.31;5975786;23;20039;-80
2023/10/01 12:40:16;;;;;;;11.20;9.18;;;;;;;27.78;36.14;101905.69;5958394;23;20023;-82
2023/10/01 12:42:50;;;;;;;15.00;10.13;;;;;;;27.96;36.54;101956.00;5966812;23;20087;-82
2023/10/01 12:45:19;;;;;;;12.63;9.68;;;;;;;27.89;36.52;101947.84;5973620;23;20471;-81
2023/10/01 12:48:07;;;;;;;15.50;9.57;;;;;;;27.82;36.52;101920.63;5972676;23;20020;-81
2023/10/01 12:50:59;;;;;;;11.13;8.70;;;;;;;27.95;35.43;101940.69;5995762;23;20683;-80
2023/10/01 12:53:27;;;;;;;9.05;7.93;;;;;;;27.45;36.05;101876.75;5985160;23;20480;-81